createdAt,value
2018-04-02T00:00:23.717Z,1002.15
2018-04-02T00:01:23.688Z,1002.13
2018-04-02T00:02:23.633Z,1002.16
2018-04-02T00:03:23.590Z,1002.18
2018-04-02T00:04:23.542Z,1002.18
2018-04-02T00:05:23.499Z,1002.14
2018-04-02T00:06:23.462Z,1002.13
2018-04-02T00:07:23.422Z,1002.13
2018-04-02T00:08:23.372Z,1002.10
2018-04-02T00:09:23.339Z,1002.09
2018-04-02T00:10:23.284Z,1002.10
2018-04-02T00:11:23.241Z,1002.06
2018-04-02T00:12:23.206Z,1002.02
2018-04-02T00:13:23.164Z,1002.04
2018-04-02T00:14:23.120Z,1002.07
2018-04-02T00:15:23.069Z,1002.03
2018-04-02T00:16:23.054Z,1002.02
2018-04-02T00:17:22.986Z,1001.98
2018-04-02T00:18:22.938Z,1002.02
2018-04-02T00:19:22.896Z,1002.00
2018-04-02T00:20:22.850Z,1002.02
2018-04-02T00:21:22.806Z,1001.98
2018-04-02T00:53:46.814Z,1001.96
2018-04-02T00:54:46.754Z,1001.91
2018-04-02T00:56:40.577Z,1001.89
2018-04-02T00:57:40.522Z,1001.85
2018-04-02T00:59:33.333Z,1001.84
2018-04-02T01:00:33.286Z,1001.87
2018-04-02T01:01:33.224Z,1001.85
2018-04-02T01:02:33.186Z,1001.88
2018-04-02T01:03:33.136Z,1001.85
2018-04-02T01:04:33.095Z,1001.85
2018-04-02T01:05:33.047Z,1001.83
2018-04-02T01:06:33.004Z,1001.84
2018-04-02T01:07:32.957Z,1001.87
2018-04-02T01:08:32.912Z,1001.85
2018-04-02T01:09:32.868Z,1001.81
2018-04-02T01:10:32.837Z,1001.79
2018-04-02T01:11:32.779Z,1001.81
2018-04-02T01:12:32.736Z,1001.77
2018-04-02T01:13:32.694Z,1001.75
2018-04-02T01:14:32.649Z,1001.75
2018-04-02T01:15:32.601Z,1001.71
2018-04-02T01:16:32.561Z,1001.72
2018-04-02T01:17:32.517Z,1001.71
2018-04-02T01:18:32.472Z,1001.69
2018-04-02T01:19:32.429Z,1001.69
2018-04-02T01:20:32.386Z,1001.67
2018-04-02T01:21:32.340Z,1001.66
2018-04-02T01:22:32.297Z,1001.64
2018-04-02T01:23:32.251Z,1001.65
2018-04-02T01:24:32.213Z,1001.65
2018-04-02T01:25:32.168Z,1001.65
2018-04-02T01:26:32.121Z,1001.67
2018-04-02T01:27:32.085Z,1001.66
2018-04-02T01:28:32.038Z,1001.65
2018-04-02T01:29:31.992Z,1001.67
2018-04-02T01:30:31.949Z,1001.64
2018-04-02T01:31:31.907Z,1001.65
2018-04-02T01:32:31.861Z,1001.62
2018-04-02T01:33:31.819Z,1001.65
2018-04-02T01:34:31.771Z,1001.61
2018-04-02T01:35:31.759Z,1001.59
2018-04-02T01:36:31.690Z,1001.54
2018-04-02T01:37:31.645Z,1001.58
2018-04-02T01:38:31.601Z,1001.57
2018-04-02T01:39:31.556Z,1001.56
2018-04-02T01:40:31.515Z,1001.55
2018-04-02T01:41:31.477Z,1001.57
2018-04-02T01:42:31.424Z,1001.55
2018-04-02T01:43:31.380Z,1001.60
2018-04-02T01:44:31.343Z,1001.54
2018-04-02T01:45:31.300Z,1001.55
2018-04-02T01:46:31.252Z,1001.55
2018-04-02T01:47:31.212Z,1001.53
2018-04-02T01:48:31.168Z,1001.50
2018-04-02T01:49:31.120Z,1001.50
2018-04-02T01:50:31.077Z,1001.53
2018-04-02T01:51:31.035Z,1001.52
2018-04-02T01:52:30.991Z,1001.50
2018-04-02T01:53:30.944Z,1001.50
2018-04-02T01:54:30.901Z,1001.45
2018-04-02T01:55:30.862Z,1001.45
2018-04-02T01:56:30.814Z,1001.42
2018-04-02T01:57:30.778Z,1001.44
2018-04-02T01:58:30.731Z,1001.46
2018-04-02T01:59:30.686Z,1001.48
2018-04-02T02:00:30.642Z,1001.46
2018-04-02T02:01:30.603Z,1001.46
2018-04-02T02:02:30.549Z,1001.41
2018-04-02T02:03:30.510Z,1001.39
2018-04-02T02:04:30.475Z,1001.38
2018-04-02T02:05:30.423Z,1001.38
2018-04-02T02:06:30.385Z,1001.34
2018-04-02T02:07:30.332Z,1001.36
2018-04-02T02:08:30.311Z,1001.35
2018-04-02T02:09:30.243Z,1001.29
2018-04-02T02:10:30.200Z,1001.30
2018-04-02T02:11:30.161Z,1001.26
2018-04-02T02:12:30.120Z,1001.24
2018-04-02T02:13:30.091Z,1001.24
2018-04-02T02:14:30.174Z,1001.19
2018-04-02T02:15:30.125Z,1001.21
2018-04-02T02:16:29.946Z,1001.18
2018-04-02T02:17:29.896Z,1001.13
2018-04-02T02:18:29.854Z,1001.12
2018-04-02T02:19:29.811Z,1001.15
2018-04-02T02:20:29.768Z,1001.15
2018-04-02T02:21:29.729Z,1001.14
2018-04-02T02:22:29.681Z,1001.18
2018-04-02T02:23:29.636Z,1001.13
2018-04-02T02:24:29.597Z,1001.11
2018-04-02T02:25:29.548Z,1001.09
2018-04-02T02:26:29.504Z,1001.11
2018-04-02T02:27:29.460Z,1001.15
2018-04-02T02:28:29.424Z,1001.14
2018-04-02T02:29:29.378Z,1001.12
2018-04-02T02:30:29.342Z,1001.08
2018-04-02T02:31:29.293Z,1001.10
2018-04-02T02:32:29.259Z,1001.08
2018-04-02T02:33:29.211Z,1001.07
2018-04-02T02:34:29.158Z,1001.05
2018-04-02T02:35:29.122Z,1001.05
2018-04-02T02:36:29.074Z,1000.99
2018-04-02T02:37:29.034Z,1000.98
2018-04-02T02:38:28.985Z,1001.00
2018-04-02T02:39:28.943Z,1000.95
2018-04-02T02:40:28.896Z,1000.97
2018-04-02T02:41:28.857Z,1001.00
2018-04-02T02:42:28.815Z,1000.98
2018-04-02T02:43:28.765Z,1000.97
2018-04-02T02:44:28.723Z,1001.00
2018-04-02T02:45:28.678Z,1000.96
2018-04-02T02:46:28.641Z,1000.97
2018-04-02T02:47:28.606Z,1000.96
2018-04-02T02:48:28.554Z,1000.93
2018-04-02T02:49:28.508Z,1000.93
2018-04-02T02:50:28.461Z,1000.96
2018-04-02T02:51:28.418Z,1000.89
2018-04-02T02:52:28.408Z,1000.93
2018-04-02T02:53:28.330Z,1000.91
2018-04-02T02:54:28.307Z,1000.88
2018-04-02T02:55:28.259Z,1000.94
2018-04-02T02:56:28.217Z,1000.89
2018-04-02T02:57:28.168Z,1000.88
2018-04-02T02:58:28.113Z,1000.92
2018-04-02T02:59:28.075Z,1000.90
2018-04-02T03:00:28.040Z,1000.90
2018-04-02T03:01:27.980Z,1000.92
2018-04-02T03:02:27.964Z,1000.91
2018-04-02T03:03:27.915Z,1000.92
2018-04-02T03:04:27.854Z,1000.92
2018-04-02T03:05:27.808Z,1000.92
2018-04-02T03:06:27.780Z,1000.89
2018-04-02T03:07:27.721Z,1000.91
2018-04-02T03:08:27.684Z,1000.90
2018-04-02T03:09:27.634Z,1000.93
2018-04-02T03:10:27.590Z,1000.89
2018-04-02T03:11:27.548Z,1000.90
2018-04-02T03:12:27.507Z,1000.93
2018-04-02T03:13:27.455Z,1000.88
2018-04-02T03:14:27.424Z,1000.90
2018-04-02T03:15:27.373Z,1000.85
2018-04-02T03:16:27.331Z,1000.88
2018-04-02T03:17:27.284Z,1000.86
2018-04-02T03:18:27.248Z,1000.87
2018-04-02T03:19:27.198Z,1000.83
2018-04-02T03:20:27.155Z,1000.80
2018-04-02T03:21:27.112Z,1000.82
2018-04-02T03:22:27.068Z,1000.84
2018-04-02T03:23:27.023Z,1000.82
2018-04-02T03:24:26.987Z,1000.80
2018-04-02T03:25:26.934Z,1000.80
2018-04-02T03:26:26.887Z,1000.81
2018-04-02T03:27:26.846Z,1000.83
2018-04-02T03:28:26.807Z,1000.78
2018-04-02T03:29:26.760Z,1000.81
2018-04-02T03:30:26.721Z,1000.79
2018-04-02T03:31:26.703Z,1000.80
2018-04-02T03:32:26.648Z,1000.77
2018-04-02T03:33:26.590Z,1000.78
2018-04-02T03:34:26.544Z,1000.78
2018-04-02T03:35:26.498Z,1000.75
2018-04-02T03:36:26.455Z,1000.81
2018-04-02T03:37:26.412Z,1000.75
2018-04-02T03:38:26.365Z,1000.75
2018-04-02T03:39:26.328Z,1000.79
2018-04-02T03:40:26.282Z,1000.76
2018-04-02T03:41:26.237Z,1000.74
2018-04-02T03:42:26.199Z,1000.74
2018-04-02T03:43:26.151Z,1000.72
2018-04-02T03:44:26.110Z,1000.73
2018-04-02T03:45:26.063Z,1000.71
2018-04-02T03:46:26.018Z,1000.74
2018-04-02T03:47:25.977Z,1000.70
2018-04-02T03:48:25.927Z,1000.72
2018-04-02T03:49:25.893Z,1000.74
2018-04-02T03:50:25.845Z,1000.71
2018-04-02T03:51:25.800Z,1000.70
2018-04-02T03:52:25.770Z,1000.75
2018-04-02T03:53:25.716Z,1000.69
2018-04-02T03:54:25.681Z,1000.68
2018-04-02T03:55:25.629Z,1000.71
2018-04-02T03:56:25.586Z,1000.70
2018-04-02T03:57:25.542Z,1000.66
2018-04-02T03:58:25.509Z,1000.65
2018-04-02T03:59:25.456Z,1000.66
2018-04-02T04:00:25.425Z,1000.70
2018-04-02T04:01:25.365Z,1000.72
2018-04-02T04:02:25.322Z,1000.68
2018-04-02T04:03:25.291Z,1000.70
2018-04-02T04:04:25.236Z,1000.69
2018-04-02T04:05:25.191Z,1000.69
2018-04-02T04:06:25.145Z,1000.67
2018-04-02T04:07:25.105Z,1000.64
2018-04-02T04:08:25.059Z,1000.62
2018-04-02T04:09:25.018Z,1000.61
2018-04-02T04:10:24.979Z,1000.61
2018-04-02T04:11:24.933Z,1000.56
2018-04-02T04:12:24.893Z,1000.55
2018-04-02T04:13:24.842Z,1000.58
2018-04-02T04:14:24.801Z,1000.57
2018-04-02T04:15:24.756Z,1000.56
2018-04-02T04:16:24.714Z,1000.54
2018-04-02T04:17:24.669Z,1000.57
2018-04-02T04:18:24.639Z,1000.58
2018-04-02T04:19:24.582Z,1000.56
2018-04-02T04:20:24.539Z,1000.55
2018-04-02T04:21:24.497Z,1000.52
2018-04-02T04:22:24.449Z,1000.53
2018-04-02T04:23:24.402Z,1000.55
2018-04-02T04:24:24.362Z,1000.54
2018-04-02T04:25:24.326Z,1000.51
2018-04-02T04:26:24.273Z,1000.50
2018-04-02T04:27:24.246Z,1000.50
2018-04-02T04:28:24.184Z,1000.50
2018-04-02T04:29:24.142Z,1000.48
2018-04-02T04:30:24.100Z,1000.52
2018-04-02T04:31:24.063Z,1000.52
2018-04-02T04:32:24.013Z,1000.53
2018-04-02T04:33:23.968Z,1000.51
2018-04-02T04:34:23.958Z,1000.55
2018-04-02T04:35:23.883Z,1000.53
2018-04-02T04:36:23.840Z,1000.54
2018-04-02T04:37:23.794Z,1000.58
2018-04-02T04:38:23.758Z,1000.49
2018-04-02T04:39:23.706Z,1000.50
2018-04-02T04:40:23.670Z,1000.49
2018-04-02T04:41:23.619Z,1000.50
2018-04-02T04:42:23.580Z,1000.47
2018-04-02T04:43:23.538Z,1000.46
2018-04-02T04:44:23.492Z,1000.46
2018-04-02T04:45:23.443Z,1000.48
2018-04-02T04:46:23.408Z,1000.44
2018-04-02T04:47:23.362Z,1000.44
2018-04-02T04:48:23.310Z,1000.49
2018-04-02T04:49:23.274Z,1000.47
2018-04-02T04:50:23.228Z,1000.45
2018-04-02T04:51:23.184Z,1000.44
2018-04-02T04:52:23.137Z,1000.45
2018-04-02T04:53:23.095Z,1000.47
2018-04-02T04:54:23.050Z,1000.42
2018-04-02T04:55:23.019Z,1000.41
2018-04-02T04:56:22.963Z,1000.45
2018-04-02T04:57:22.919Z,1000.42
2018-04-02T04:58:22.879Z,1000.42
2018-04-02T04:59:22.894Z,1000.40
2018-04-02T05:00:22.790Z,1000.39
2018-04-02T05:01:22.744Z,1000.41
2018-04-02T05:02:22.701Z,1000.42
2018-04-02T05:03:22.665Z,1000.44
2018-04-02T05:04:22.621Z,1000.40
2018-04-02T05:05:22.577Z,1000.43
2018-04-02T05:06:22.527Z,1000.46
2018-04-02T05:07:22.485Z,1000.43
2018-04-02T05:08:22.440Z,1000.47
2018-04-02T05:09:22.400Z,1000.46
2018-04-02T05:10:22.355Z,1000.45
2018-04-02T05:11:22.309Z,1000.44
2018-04-02T05:12:22.305Z,1000.44
2018-04-02T05:13:22.225Z,1000.42
2018-04-02T05:14:22.177Z,1000.43
2018-04-02T05:15:22.144Z,1000.43
2018-04-02T05:16:22.092Z,1000.44
2018-04-02T05:17:22.050Z,1000.42
2018-04-02T05:18:22.001Z,1000.41
2018-04-02T05:19:21.962Z,1000.36
2018-04-02T05:20:21.915Z,1000.39
2018-04-02T05:21:21.874Z,1000.40
2018-04-02T05:22:21.830Z,1000.39
2018-04-02T05:23:21.787Z,1000.35
2018-04-02T05:24:21.741Z,1000.36
2018-04-02T05:25:21.698Z,1000.38
2018-04-02T05:26:21.654Z,1000.37
2018-04-02T05:27:21.607Z,1000.34
2018-04-02T05:28:21.566Z,1000.32
2018-04-02T05:29:21.544Z,1000.33
2018-04-02T05:30:21.479Z,1000.32
2018-04-02T05:31:21.434Z,1000.29
2018-04-02T05:32:21.395Z,1000.31
2018-04-02T05:33:21.344Z,1000.35
2018-04-02T05:34:21.306Z,1000.30
2018-04-02T05:35:21.262Z,1000.35
2018-04-02T05:36:21.220Z,1000.35
2018-04-02T05:37:21.173Z,1000.35
2018-04-02T05:38:21.132Z,1000.35
2018-04-02T05:39:21.090Z,1000.33
2018-04-02T05:40:21.046Z,1000.31
2018-04-02T05:41:21.002Z,1000.27
2018-04-02T05:42:20.955Z,1000.29
2018-04-02T05:43:20.912Z,1000.27
2018-04-02T05:44:20.874Z,1000.24
2018-04-02T05:45:20.827Z,1000.26
2018-04-02T05:46:20.784Z,1000.26
2018-04-02T05:47:20.738Z,1000.26
2018-04-02T05:48:20.700Z,1000.22
2018-04-02T05:49:20.655Z,1000.21
2018-04-02T05:50:20.610Z,1000.22
2018-04-02T05:51:20.565Z,1000.19
2018-04-02T05:52:20.523Z,1000.23
2018-04-02T05:53:20.479Z,1000.25
2018-04-02T05:54:20.435Z,1000.25
2018-04-02T05:55:20.391Z,1000.23
2018-04-02T05:56:20.346Z,1000.23
2018-04-02T05:57:20.305Z,1000.25
2018-04-02T05:58:20.258Z,1000.23
2018-04-02T05:59:20.219Z,1000.24
2018-04-02T06:00:20.179Z,1000.21
2018-04-02T06:01:20.132Z,1000.21
2018-04-02T06:02:20.089Z,1000.23
2018-04-02T06:03:20.044Z,1000.21
2018-04-02T06:04:20.001Z,1000.23
2018-04-02T06:05:19.969Z,1000.24
2018-04-02T06:06:19.915Z,1000.26
2018-04-02T06:07:19.870Z,1000.23
2018-04-02T06:08:19.831Z,1000.25
2018-04-02T06:09:19.788Z,1000.24
2018-04-02T06:10:19.740Z,1000.21
2018-04-02T06:11:19.698Z,1000.20
2018-04-02T06:12:19.651Z,1000.18
2018-04-02T06:13:19.610Z,1000.14
2018-04-02T06:14:19.562Z,1000.14
2018-04-02T06:15:19.521Z,1000.17
2018-04-02T06:16:19.480Z,1000.11
2018-04-02T06:17:19.434Z,1000.07
2018-04-02T06:18:19.408Z,1000.10
2018-04-02T06:19:19.352Z,1000.08
2018-04-02T06:20:19.311Z,1000.07
2018-04-02T06:21:19.266Z,1000.06
2018-04-02T06:22:19.220Z,1000.06
2018-04-02T06:23:19.173Z,1000.07
2018-04-02T06:24:19.132Z,1000.07
2018-04-02T06:25:19.094Z,1000.07
2018-04-02T06:26:19.042Z,1000.08
2018-04-02T06:27:19.002Z,1000.06
2018-04-02T06:28:18.964Z,1000.06
2018-04-02T06:29:18.913Z,1000.05
2018-04-02T06:30:18.869Z,1000.02
2018-04-02T06:31:18.833Z,1000.05
2018-04-02T06:32:18.795Z,1000.00
2018-04-02T06:33:18.743Z,1000.01
2018-04-02T06:34:18.703Z,1000.06
2018-04-02T06:35:18.655Z,1000.07
2018-04-02T06:36:18.616Z,1000.04
2018-04-02T06:37:18.566Z,1000.03
2018-04-02T06:38:18.524Z,1000.05
2018-04-02T06:39:18.499Z,1000.04
2018-04-02T06:40:18.446Z,1000.06
2018-04-02T06:41:18.390Z,1000.07
2018-04-02T06:42:18.355Z,1000.02
2018-04-02T06:43:18.307Z,1000.01
2018-04-02T06:44:18.261Z,1000.04
2018-04-02T06:45:18.225Z,999.98
2018-04-02T06:46:18.184Z,1000.03
2018-04-02T06:47:18.135Z,1000.03
2018-04-02T06:48:18.088Z,1000.02
2018-04-02T06:49:18.046Z,999.98
2018-04-02T06:50:18.001Z,1000.01
2018-04-02T06:51:17.961Z,1000.02
2018-04-02T06:52:17.915Z,1000.03
2018-04-02T06:53:17.868Z,1000.04
2018-04-02T06:54:17.827Z,1000.03
2018-04-02T06:55:17.792Z,1000.02
2018-04-02T06:56:17.740Z,1000.02
2018-04-02T06:57:17.698Z,1000.00
2018-04-02T06:58:17.662Z,999.97
2018-04-02T06:59:17.611Z,999.99
2018-04-02T07:00:17.576Z,999.98
2018-04-02T07:01:17.523Z,999.97
2018-04-02T07:02:17.480Z,999.98
2018-04-02T07:03:17.489Z,999.91
2018-04-02T07:04:17.395Z,999.90
2018-04-02T07:05:17.388Z,999.87
2018-04-02T07:06:17.310Z,999.83
2018-04-02T07:07:17.271Z,999.85
2018-04-02T07:08:17.221Z,999.85
2018-04-02T07:09:17.177Z,999.86
2018-04-02T07:10:17.135Z,999.82
2018-04-02T07:11:17.094Z,999.86
2018-04-02T07:12:17.047Z,999.82
2018-04-02T07:13:17.049Z,999.85
2018-04-02T07:14:16.971Z,999.82
2018-04-02T07:15:16.925Z,999.80
2018-04-02T07:16:16.879Z,999.78
2018-04-02T07:17:16.837Z,999.77
2018-04-02T07:18:16.793Z,999.74
2018-04-02T07:19:16.748Z,999.78
2018-04-02T07:20:16.702Z,999.77
2018-04-02T07:21:16.661Z,999.78
2018-04-02T07:22:16.618Z,999.73
2018-04-02T07:23:16.582Z,999.76
2018-04-02T07:24:16.528Z,999.77
2018-04-02T07:25:16.488Z,999.80
2018-04-02T07:26:16.444Z,999.82
2018-04-02T07:27:16.409Z,999.80
2018-04-02T07:28:16.354Z,999.82
2018-04-02T07:29:16.313Z,999.81
2018-04-02T07:30:16.269Z,999.83
2018-04-02T07:31:16.224Z,999.85
2018-04-02T07:32:16.182Z,999.82
2018-04-02T07:33:16.134Z,999.81
2018-04-02T07:34:16.095Z,999.78
2018-04-02T07:35:16.053Z,999.81
2018-04-02T07:36:16.008Z,999.83
2018-04-02T07:37:15.963Z,999.80
2018-04-02T07:38:15.924Z,999.76
2018-04-02T07:39:15.885Z,999.77
2018-04-02T07:40:15.835Z,999.73
2018-04-02T07:41:15.794Z,999.73
2018-04-02T07:42:15.752Z,999.66
2018-04-02T07:43:15.710Z,999.68
2018-04-02T07:44:15.695Z,999.65
2018-04-02T07:45:15.621Z,999.63
2018-04-02T07:46:15.578Z,999.59
2018-04-02T07:47:15.527Z,999.61
2018-04-02T07:48:15.502Z,999.59
2018-04-02T07:49:15.445Z,999.55
2018-04-02T07:50:15.406Z,999.53
2018-04-02T07:51:15.356Z,999.53
2018-04-02T07:52:15.319Z,999.50
2018-04-02T07:53:15.272Z,999.49
2018-04-02T07:54:15.232Z,999.49
2018-04-02T07:55:15.205Z,999.49
2018-04-02T07:56:15.153Z,999.48
2018-04-02T07:57:15.101Z,999.47
2018-04-02T07:58:15.057Z,999.48
2018-04-02T07:59:15.020Z,999.46
2018-04-02T08:00:14.969Z,999.44
2018-04-02T08:01:14.924Z,999.44
2018-04-02T08:02:14.881Z,999.41
2018-04-02T08:03:14.839Z,999.42
2018-04-02T08:04:14.818Z,999.39
2018-04-02T08:05:14.752Z,999.39
2018-04-02T08:06:14.709Z,999.35
2018-04-02T08:07:14.671Z,999.32
2018-04-02T08:08:14.623Z,999.30
2018-04-02T08:09:14.762Z,999.31
2018-04-02T08:10:14.534Z,999.32
2018-04-02T08:11:14.492Z,999.30
2018-04-02T08:12:14.456Z,999.28
2018-04-02T08:13:14.475Z,999.26
2018-04-02T08:14:14.365Z,999.31
2018-04-02T08:15:14.318Z,999.30
2018-04-02T08:16:14.274Z,999.31
2018-04-02T08:17:14.232Z,999.35
2018-04-02T08:18:14.185Z,999.35
2018-04-02T08:19:14.149Z,999.37
2018-04-02T08:20:14.105Z,999.36
2018-04-02T08:21:14.057Z,999.32
2018-04-02T08:22:14.016Z,999.34
2018-04-02T08:23:13.973Z,999.32
2018-04-02T08:24:13.930Z,999.30
2018-04-02T08:25:13.888Z,999.30
2018-04-02T08:26:13.844Z,999.28
2018-04-02T08:27:13.813Z,999.28
2018-04-02T08:28:13.787Z,999.27
2018-04-02T08:29:13.717Z,999.24
2018-04-02T08:30:13.673Z,999.23
2018-04-02T08:31:13.631Z,999.25
2018-04-02T08:32:13.584Z,999.24
2018-04-02T08:33:13.544Z,999.23
2018-04-02T08:34:13.500Z,999.24
2018-04-02T08:35:13.454Z,999.21
2018-04-02T08:36:13.414Z,999.20
2018-04-02T08:37:13.371Z,999.19
2018-04-02T08:38:13.329Z,999.25
2018-04-02T08:39:13.281Z,999.21
2018-04-02T08:40:13.241Z,999.19
2018-04-02T08:41:13.197Z,999.18
2018-04-02T08:42:13.191Z,999.19
2018-04-02T08:43:13.111Z,999.19
2018-04-02T08:44:13.066Z,999.19
2018-04-02T08:45:13.021Z,999.19
2018-04-02T08:46:12.986Z,999.23
2018-04-02T08:47:12.935Z,999.26
2018-04-02T08:48:12.892Z,999.25
2018-04-02T08:49:12.851Z,999.26
2018-04-02T08:50:12.804Z,999.27
2018-04-02T08:51:12.760Z,999.25
2018-04-02T08:52:12.721Z,999.28
2018-04-02T08:53:12.673Z,999.30
2018-04-02T08:54:12.633Z,999.23
2018-04-02T08:55:12.640Z,999.26
2018-04-02T08:56:12.547Z,999.25
2018-04-02T08:57:12.509Z,999.23
2018-04-02T08:58:12.461Z,999.27
2018-04-02T08:59:12.421Z,999.26
2018-04-02T09:00:12.381Z,999.22
2018-04-02T09:01:12.332Z,999.22
2018-04-02T09:02:12.286Z,999.20
2018-04-02T09:03:12.245Z,999.19
2018-04-02T09:04:12.202Z,999.17
2018-04-02T09:05:12.160Z,999.11
2018-04-02T09:06:12.118Z,999.11
2018-04-02T09:07:12.119Z,999.13
2018-04-02T09:08:12.092Z,999.09
2018-04-02T09:09:11.990Z,999.10
2018-04-02T09:10:11.947Z,999.08
2018-04-02T09:11:11.899Z,999.07
2018-04-02T09:12:11.861Z,999.08
2018-04-02T09:13:11.882Z,999.08
2018-04-02T09:14:11.770Z,999.07
2018-04-02T09:15:11.728Z,999.05
2018-04-02T09:16:11.685Z,999.02
2018-04-02T09:17:11.640Z,999.08
2018-04-02T09:18:11.601Z,999.01
2018-04-02T09:19:11.570Z,999.03
2018-04-02T09:20:11.515Z,998.99
2018-04-02T09:21:11.470Z,998.97
2018-04-02T09:22:11.423Z,998.92
2018-04-02T09:23:11.382Z,998.89
2018-04-02T09:24:11.337Z,998.88
2018-04-02T09:25:11.294Z,998.85
2018-04-02T09:26:11.249Z,998.83
2018-04-02T09:27:11.210Z,998.81
2018-04-02T09:28:11.165Z,998.85
2018-04-02T09:29:11.143Z,998.83
2018-04-02T09:30:11.083Z,998.85
2018-04-02T09:31:11.033Z,998.83
2018-04-02T09:32:10.995Z,998.82
2018-04-02T09:33:10.948Z,998.77
2018-04-02T09:34:10.907Z,998.78
2018-04-02T09:35:10.868Z,998.75
2018-04-02T09:36:10.916Z,998.76
2018-04-02T09:37:10.779Z,998.74
2018-04-02T09:38:10.736Z,998.68
2018-04-02T09:39:10.690Z,998.71
2018-04-02T09:40:10.646Z,998.71
2018-04-02T09:41:10.603Z,998.70
2018-04-02T09:42:10.571Z,998.70
2018-04-02T09:43:10.518Z,998.70
2018-04-02T09:44:10.469Z,998.67
2018-04-02T09:45:10.429Z,998.66
2018-04-02T09:46:10.386Z,998.67
2018-04-02T09:47:10.345Z,998.65
2018-04-02T09:48:10.302Z,998.64
2018-04-02T09:49:10.263Z,998.63
2018-04-02T09:50:10.214Z,998.61
2018-04-02T09:51:10.182Z,998.62
2018-04-02T09:52:10.134Z,998.60
2018-04-02T09:53:10.084Z,998.55
2018-04-02T09:54:10.043Z,998.54
2018-04-02T09:55:09.996Z,998.53
2018-04-02T09:56:09.962Z,998.49
2018-04-02T09:57:09.909Z,998.50
2018-04-02T09:58:09.872Z,998.46
2018-04-02T09:59:09.825Z,998.44
2018-04-02T10:00:09.789Z,998.39
2018-04-02T10:01:09.841Z,998.37
2018-04-02T10:02:09.692Z,998.33
2018-04-02T10:03:09.724Z,998.35
2018-04-02T10:04:09.613Z,998.32
2018-04-02T10:05:09.617Z,998.36
2018-04-02T10:06:09.530Z,998.29
2018-04-02T10:07:09.474Z,998.32
2018-04-02T10:08:09.435Z,998.25
2018-04-02T10:09:09.391Z,998.25
2018-04-02T10:10:09.454Z,998.25
2018-04-02T10:11:09.304Z,998.18
2018-04-02T10:12:09.268Z,998.14
2018-04-02T10:13:09.229Z,998.09
2018-04-02T10:14:09.174Z,998.08
2018-04-02T10:15:09.139Z,998.05
2018-04-02T10:16:09.088Z,998.07
2018-04-02T10:17:09.049Z,998.04
2018-04-02T10:18:09.004Z,997.99
2018-04-02T10:19:08.959Z,997.98
2018-04-02T10:20:08.926Z,997.97
2018-04-02T10:21:08.875Z,997.90
2018-04-02T10:22:08.827Z,997.93
2018-04-02T10:23:08.786Z,997.88
2018-04-02T10:24:08.740Z,997.81
2018-04-02T10:25:08.699Z,997.82
2018-04-02T10:26:08.675Z,997.78
2018-04-02T10:27:08.614Z,997.76
2018-04-02T10:28:08.604Z,997.75
2018-04-02T10:29:08.539Z,997.78
2018-04-02T10:30:08.495Z,997.74
2018-04-02T10:31:08.444Z,997.75
2018-04-02T10:32:08.465Z,997.76
2018-04-02T10:33:08.353Z,997.76
2018-04-02T10:34:08.308Z,997.74
2018-04-02T10:35:08.268Z,997.76
2018-04-02T10:36:08.227Z,997.74
2018-04-02T10:37:08.181Z,997.74
2018-04-02T10:38:08.145Z,997.74
2018-04-02T10:39:08.100Z,997.70
2018-04-02T10:40:08.052Z,997.67
2018-04-02T10:41:08.007Z,997.69
2018-04-02T10:42:07.960Z,997.66
2018-04-02T10:43:07.923Z,997.63
2018-04-02T10:44:07.879Z,997.62
2018-04-02T10:45:07.834Z,997.62
2018-04-02T10:46:07.789Z,997.59
2018-04-02T10:47:07.748Z,997.60
2018-04-02T10:48:07.708Z,997.61
2018-04-02T10:49:07.662Z,997.60
2018-04-02T10:50:07.618Z,997.60
2018-04-02T10:51:07.575Z,997.57
2018-04-02T10:52:07.531Z,997.63
2018-04-02T10:53:07.490Z,997.64
2018-04-02T10:54:07.447Z,997.60
2018-04-02T10:55:07.401Z,997.59
2018-04-02T10:56:07.379Z,997.61
2018-04-02T10:57:07.333Z,997.59
2018-04-02T10:58:07.273Z,997.60
2018-04-02T10:59:07.242Z,997.61
2018-04-02T11:00:07.188Z,997.60
2018-04-02T11:01:07.139Z,997.56
2018-04-02T11:02:07.098Z,997.58
2018-04-02T11:03:07.061Z,997.54
2018-04-02T11:04:07.020Z,997.55
2018-04-02T11:05:06.974Z,997.53
2018-04-02T11:06:06.928Z,997.50
2018-04-02T11:07:06.886Z,997.47
2018-04-02T11:08:06.852Z,997.46
2018-04-02T11:09:06.838Z,997.43
2018-04-02T11:10:06.755Z,997.40
2018-04-02T11:11:06.707Z,997.41
2018-04-02T11:12:06.667Z,997.36
2018-04-02T11:13:06.620Z,997.33
2018-04-02T11:14:06.576Z,997.35
2018-04-02T11:15:06.540Z,997.27
2018-04-02T11:16:06.493Z,997.27
2018-04-02T11:17:06.463Z,997.25
2018-04-02T11:18:06.406Z,997.21
2018-04-02T11:19:06.359Z,997.20
2018-04-02T11:20:06.320Z,997.15
2018-04-02T11:21:06.283Z,997.16
2018-04-02T11:22:06.232Z,997.16
2018-04-02T11:23:06.190Z,997.11
2018-04-02T11:24:06.152Z,997.06
2018-04-02T11:25:06.102Z,997.06
2018-04-02T11:26:06.059Z,997.05
2018-04-02T11:27:06.014Z,997.02
2018-04-02T11:28:05.979Z,996.99
2018-04-02T11:29:05.929Z,996.96
2018-04-02T11:30:05.884Z,996.95
2018-04-02T11:31:05.842Z,996.96
2018-04-02T11:32:05.802Z,996.94
2018-04-02T11:33:05.760Z,996.94
2018-04-02T11:34:05.713Z,996.92
2018-04-02T11:35:05.672Z,996.96
2018-04-02T11:36:05.628Z,996.93
2018-04-02T11:37:05.583Z,996.90
2018-04-02T11:38:05.539Z,996.90
2018-04-02T11:39:05.496Z,996.87
2018-04-02T11:40:05.459Z,996.85
2018-04-02T11:41:05.408Z,996.87
2018-04-02T11:42:05.363Z,996.85
2018-04-02T11:43:05.323Z,996.80
2018-04-02T11:44:05.288Z,996.78
2018-04-02T11:45:05.264Z,996.78
2018-04-02T11:47:37.238Z,996.70
2018-04-02T11:48:37.189Z,996.66
2018-04-02T11:49:37.143Z,996.61
2018-04-02T11:50:37.108Z,996.58
2018-04-02T11:51:37.057Z,996.55
2018-04-02T11:52:44.140Z,996.58
2018-04-02T11:54:37.480Z,996.52
2018-04-02T11:55:37.402Z,996.51
2018-04-02T11:57:23.576Z,996.52
2018-04-02T11:58:23.530Z,996.53
2018-04-02T11:59:23.487Z,996.47
2018-04-02T12:00:23.451Z,996.49
2018-04-02T12:01:23.421Z,996.48
2018-04-02T12:02:23.379Z,996.47
2018-04-02T12:03:23.313Z,996.45
2018-04-02T12:04:23.278Z,996.51
2018-04-02T12:05:23.225Z,996.51
2018-04-02T12:06:23.182Z,996.49
2018-04-02T12:07:23.140Z,996.47
2018-04-02T12:08:23.098Z,996.45
2018-04-02T12:09:23.066Z,996.47
2018-04-02T12:10:23.010Z,996.45
2018-04-02T12:11:22.995Z,996.45
2018-04-02T12:12:22.922Z,996.45
2018-04-02T12:13:22.881Z,996.41
2018-04-02T12:14:22.835Z,996.40
2018-04-02T12:15:22.804Z,996.41
2018-04-02T12:16:22.786Z,996.37
2018-04-02T12:17:22.715Z,996.34
2018-04-02T12:18:22.664Z,996.39
2018-04-02T12:19:22.628Z,996.38
2018-04-02T12:20:22.577Z,996.38
2018-04-02T12:21:22.535Z,996.40
2018-04-02T12:22:22.500Z,996.33
2018-04-02T12:23:22.452Z,996.28
2018-04-02T12:24:22.409Z,996.28
2018-04-02T12:25:22.364Z,996.27
2018-04-02T12:26:22.334Z,996.25
2018-04-02T12:27:22.275Z,996.23
2018-04-02T12:28:22.230Z,996.23
2018-04-02T12:29:22.188Z,996.24
2018-04-02T12:30:22.172Z,996.18
2018-04-02T12:31:22.102Z,996.12
2018-04-02T12:32:22.109Z,996.11
2018-04-02T12:33:22.011Z,996.11
2018-04-02T12:34:21.973Z,996.06
2018-04-02T12:35:21.959Z,996.10
2018-04-02T12:36:21.883Z,996.12
2018-04-02T12:37:21.848Z,996.13
2018-04-02T12:38:21.800Z,996.05
2018-04-02T12:39:21.757Z,996.08
2018-04-02T12:40:21.714Z,996.06
2018-04-02T12:41:21.685Z,996.07
2018-04-02T12:42:21.626Z,996.04
2018-04-02T12:43:21.617Z,996.07
2018-04-02T12:44:21.601Z,996.06
2018-04-02T12:45:21.526Z,996.01
2018-04-02T12:46:21.467Z,995.96
2018-04-02T12:47:21.455Z,995.93
2018-04-02T12:48:21.367Z,995.92
2018-04-02T12:49:21.322Z,995.88
2018-04-02T12:50:21.280Z,995.89
2018-04-02T12:51:21.243Z,995.87
2018-04-02T12:52:21.199Z,995.84